Time;durP1;ratioP1;P1;durP2;ratioP2;P2;SDS_P1;SDS_P2;PMS_P1;PMS_P2;Temp;Humidity;BMP_temperature;BMP_pressure;BME280_temperature;BME280_humidity;BME280_pressure;Samples;Min_cycle;Max_cycle;Signal;HPM_P1;HPM_P2
2023/09/14 00:00:45;;;;;;;1.10;1.10;;;;;;;12.79;93.79;102180.69;4995892;28;20022;-85
2023/09/14 00:03:11;;;;;;;1.40;1.30;;;;;;;12.79;93.82;102185.91;4994914;28;20022;-85
2023/09/14 00:05:40;;;;;;;1.33;1.23;;;;;;;12.76;94.08;102188.56;4996213;28;20034;-85
2023/09/14 00:08:05;;;;;;;1.83;1.30;;;;;;;12.73;94.04;102192.00;4995803;28;20045;-86
2023/09/14 00:10:31;;;;;;;1.13;1.13;;;;;;;12.68;93.92;102175.53;4995283;28;20022;-85
2023/09/14 00:12:57;;;;;;;1.27;1.17;;;;;;;12.61;93.96;102176.44;4995830;28;20037;-85
2023/09/14 00:15:22;;;;;;;1.07;1.07;;;;;;;12.64;94.13;102189.44;4995761;28;20031;-86
2023/09/14 00:17:47;;;;;;;1.20;1.10;;;;;;;12.58;94.20;102192.06;4995155;28;20049;-86
2023/09/14 00:20:24;;;;;;;2.03;1.37;;;;;;;12.54;94.14;102190.31;4995629;28;20030;-85
2023/09/14 00:22:51;;;;;;;1.15;1.10;;;;;;;12.51;94.20;102188.59;4995080;28;20108;-85
2023/09/14 00:25:20;;;;;;;1.10;1.00;;;;;;;12.47;94.32;102181.66;4995311;28;20080;-85
2023/09/14 00:27:46;;;;;;;1.08;1.02;;;;;;;12.43;94.55;102182.53;4995679;28;20041;-85
2023/09/14 00:30:12;;;;;;;0.90;0.90;;;;;;;12.42;94.60;102178.19;4994829;28;20143;-85
2023/09/14 00:32:42;;;;;;;1.57;1.30;;;;;;;12.39;94.72;102178.19;4995712;28;20063;-86
2023/09/14 00:35:11;;;;;;;1.02;1.00;;;;;;;12.38;94.61;102182.56;4995434;28;20457;-85
2023/09/14 00:37:37;;;;;;;1.00;1.00;;;;;;;12.33;94.72;102173.88;4994851;28;20029;-86
2023/09/14 00:40:07;;;;;;;1.30;1.20;;;;;;;12.31;94.72;102181.69;4995590;28;20030;-86
2023/09/14 00:42:42;;;;;;;1.20;1.10;;;;;;;12.28;94.90;102179.09;4995370;28;20026;-86
2023/09/14 00:45:10;;;;;;;1.23;1.13;;;;;;;12.28;95.07;102181.69;4994278;28;20030;-85
2023/09/14 00:47:38;;;;;;;1.65;1.25;;;;;;;12.25;94.98;102186.88;4995381;28;20022;-86
2023/09/14 00:50:07;;;;;;;1.30;1.20;;;;;;;12.22;95.09;102189.47;4994873;28;20048;-86
2023/09/14 00:52:35;;;;;;;1.02;0.93;;;;;;;12.15;95.21;102178.25;4993318;28;20027;-86
2023/09/14 00:55:03;;;;;;;1.50;1.40;;;;;;;12.17;95.36;102183.44;4995258;28;20173;-86
2023/09/14 00:57:29;;;;;;;1.33;1.23;;;;;;;12.15;95.23;102190.38;4995047;28;20026;-86
2023/09/14 00:59:55;;;;;;;1.20;1.10;;;;;;;12.14;95.02;102181.69;4994639;28;20026;-86
2023/09/14 01:02:20;;;;;;;1.73;1.47;;;;;;;12.13;95.03;102179.09;4994712;28;20439;-85
2023/09/14 01:04:46;;;;;;;1.47;1.30;;;;;;;12.11;95.46;102184.31;4994405;28;20025;-85
2023/09/14 01:07:14;;;;;;;1.30;1.20;;;;;;;12.09;95.53;102182.56;4994655;28;20072;-85
2023/09/14 01:09:39;;;;;;;1.85;1.30;;;;;;;12.04;95.65;102178.22;4994991;28;20434;-85
2023/09/14 01:12:08;;;;;;;1.90;1.33;;;;;;;12.01;95.49;102173.00;4993775;28;20189;-86
2023/09/14 01:14:48;;;;;;;1.70;1.50;;;;;;;12.02;95.47;102181.69;4994790;28;20026;-86
2023/09/14 01:17:31;;;;;;;1.58;1.48;;;;;;;11.98;95.22;102187.75;4994164;28;20033;-85
2023/09/14 01:20:13;;;;;;;1.98;1.30;;;;;;;11.93;95.52;102179.94;4994202;28;20033;-86
2023/09/14 01:22:45;;;;;;;1.42;1.33;;;;;;;11.94;95.57;102185.97;4994813;28;20054;-86
2023/09/14 01:25:23;;;;;;;1.27;1.17;;;;;;;11.93;95.71;102184.28;4994290;28;20104;-86
2023/09/14 01:27:49;;;;;;;1.20;1.10;;;;;;;11.94;95.74;102189.47;4993732;28;20402;-85
2023/09/14 01:30:14;;;;;;;1.30;1.20;;;;;;;11.92;95.69;102190.34;4994272;28;20037;-86
2023/09/14 01:32:40;;;;;;;1.60;1.47;;;;;;;11.87;95.42;102185.13;4994516;28;20026;-86
2023/09/14 01:35:05;;;;;;;1.20;1.10;;;;;;;11.85;95.96;102181.66;4993249;28;20027;-87
2023/09/14 01:37:32;;;;;;;0.97;0.97;;;;;;;11.78;95.72;102178.19;4994635;28;20101;-86
2023/09/14 01:39:58;;;;;;;1.55;1.45;;;;;;;11.79;95.94;102174.72;4993422;28;20097;-85
2023/09/14 01:42:24;;;;;;;1.23;1.13;;;;;;;11.79;95.99;102182.53;4994296;28;20056;-86
2023/09/14 01:44:50;;;;;;;1.40;1.30;;;;;;;11.76;96.02;102176.44;4994179;28;20368;-86
2023/09/14 01:47:16;;;;;;;1.33;1.23;;;;;;;11.71;95.88;102173.81;4993016;28;20026;-86
2023/09/14 01:49:42;;;;;;;1.73;1.63;;;;;;;11.76;96.05;102181.66;4994204;28;20030;-86
2023/09/14 01:52:08;;;;;;;2.30;1.30;;;;;;;11.75;96.03;102178.16;4993930;28;20030;-86
2023/09/14 01:54:33;;;;;;;1.87;1.57;;;;;;;11.73;96.15;102183.38;4996344;28;20054;-86
2023/09/14 01:56:58;;;;;;;1.30;1.20;;;;;;;11.71;96.04;102189.44;4995400;28;20026;-86
2023/09/14 01:59:24;;;;;;;1.50;1.40;;;;;;;11.71;96.10;102192.91;4993847;28;20026;-86
2023/09/14 02:01:49;;;;;;;1.57;1.47;;;;;;;11.67;96.12;102190.31;4993236;28;20042;-86
2023/09/14 02:04:14;;;;;;;1.87;1.10;;;;;;;11.62;96.14;102184.22;4993099;28;20022;-86
2023/09/14 02:06:39;;;;;;;1.10;1.10;;;;;;;11.56;96.28;102185.06;4994148;28;20538;-86
2023/09/14 02:09:05;;;;;;;1.40;1.30;;;;;;;11.56;96.20;102191.16;4992679;28;20491;-86
2023/09/14 02:11:30;;;;;;;1.50;1.40;;;;;;;11.56;96.57;102177.28;4993789;28;20042;-86
2023/09/14 02:13:55;;;;;;;1.30;1.17;;;;;;;11.56;96.22;102178.16;4993836;28;20027;-86
2023/09/14 02:16:21;;;;;;;0.97;0.97;;;;;;;11.53;96.38;102182.47;4992491;28;20045;-86
2023/09/14 02:18:46;;;;;;;1.03;0.93;;;;;;;11.50;96.38;102180.72;4993387;28;20034;-86
2023/09/14 02:21:12;;;;;;;1.00;1.00;;;;;;;11.50;96.48;102175.53;4993655;28;20529;-86
2023/09/14 02:23:38;;;;;;;1.65;1.10;;;;;;;11.49;96.71;102175.53;4993258;28;20049;-86
2023/09/14 02:26:03;;;;;;;1.23;1.23;;;;;;;11.44;96.67;102173.78;4993005;28;20463;-86
2023/09/14 02:28:28;;;;;;;1.30;1.20;;;;;;;11.42;96.69;102172.03;4993483;28;20105;-86
2023/09/14 02:30:54;;;;;;;1.17;1.07;;;;;;;11.40;96.77;102171.16;4993247;28;20030;-86
2023/09/14 02:33:19;;;;;;;1.07;1.07;;;;;;;11.37;96.75;102171.19;4992967;28;20026;-86
2023/09/14 02:35:50;;;;;;;0.83;0.83;;;;;;;11.34;96.51;102165.97;4993360;28;20018;-86
2023/09/14 02:38:16;;;;;;;1.23;1.13;;;;;;;11.30;96.61;102169.41;4992539;28;20022;-86
2023/09/14 02:40:41;;;;;;;1.30;1.20;;;;;;;11.26;96.71;102164.19;4993605;28;20026;-86
2023/09/14 02:43:07;;;;;;;1.60;1.43;;;;;;;11.24;96.82;102163.34;4992745;28;20101;-86
2023/09/14 02:45:32;;;;;;;1.07;1.07;;;;;;;11.27;96.87;102163.34;4992623;28;20034;-85
2023/09/14 02:47:57;;;;;;;1.03;1.03;;;;;;;11.23;96.75;102160.72;4993501;28;20026;-87
2023/09/14 02:50:23;;;;;;;1.07;1.07;;;;;;;11.21;97.17;102154.66;4992439;28;20109;-86
2023/09/14 02:52:48;;;;;;;1.10;1.00;;;;;;;11.17;97.16;102155.53;4993732;28;20110;-86
2023/09/14 02:55:13;;;;;;;2.03;1.20;;;;;;;11.19;97.07;102161.59;4993117;28;20356;-87
2023/09/14 02:57:39;;;;;;;0.97;0.97;;;;;;;11.12;96.96;102163.31;4992509;28;20022;-87
2023/09/14 03:00:07;;;;;;;1.33;1.27;;;;;;;11.13;97.12;102158.09;4993294;28;20031;-86
2023/09/14 03:02:33;;;;;;;1.38;1.27;;;;;;;11.08;96.88;102151.16;4993798;28;20054;-86
2023/09/14 03:04:59;;;;;;;1.10;1.10;;;;;;;11.07;96.90;102155.50;4992457;28;20025;-87
2023/09/14 03:07:24;;;;;;;1.03;0.93;;;;;;;11.03;96.88;102147.69;4993395;28;20019;-87
2023/09/14 03:09:49;;;;;;;1.17;1.17;;;;;;;11.05;97.11;102151.13;4993354;28;20407;-86
2023/09/14 03:12:14;;;;;;;1.33;1.17;;;;;;;10.97;97.17;102144.19;4992525;28;20018;-87
2023/09/14 03:14:40;;;;;;;1.10;1.00;;;;;;;11.00;97.25;102161.50;4993295;28;20419;-86
2023/09/14 03:17:05;;;;;;;1.20;1.10;;;;;;;10.97;97.06;102157.19;4995548;28;20031;-87
2023/09/14 03:19:31;;;;;;;0.93;0.90;;;;;;;10.97;97.24;102161.53;4996688;28;20152;-87
2023/09/14 03:21:56;;;;;;;1.10;1.10;;;;;;;10.93;97.09;102159.75;4997044;28;20105;-86
2023/09/14 03:24:21;;;;;;;1.00;1.00;;;;;;;10.85;97.08;102154.53;4996979;28;20029;-86
2023/09/14 03:26:47;;;;;;;1.40;1.30;;;;;;;10.86;97.23;102158.00;4995976;28;20023;-86
2023/09/14 03:29:13;;;;;;;1.20;1.20;;;;;;;10.87;97.09;102168.38;4996477;28;20483;-86
2023/09/14 03:31:38;;;;;;;1.25;1.15;;;;;;;10.82;97.06;102162.28;4996456;28;20049;-86
2023/09/14 03:34:05;;;;;;;1.17;1.07;;;;;;;10.86;97.34;102173.59;4995592;28;20022;-86
2023/09/14 03:36:30;;;;;;;1.10;1.10;;;;;;;10.85;97.31;102167.50;4996452;28;20034;-86
2023/09/14 03:38:56;;;;;;;1.30;1.20;;;;;;;10.83;97.42;102164.03;4996362;28;20446;-87
2023/09/14 03:41:21;;;;;;;1.33;1.23;;;;;;;10.86;97.29;102173.59;4995511;28;20031;-86
2023/09/14 03:43:46;;;;;;;1.00;1.00;;;;;;;10.80;97.21;102162.28;4996580;28;20077;-87
2023/09/14 03:46:14;;;;;;;1.40;1.30;;;;;;;10.78;97.14;102164.00;4995792;28;20121;-85
2023/09/14 03:48:40;;;;;;;0.70;0.70;;;;;;;10.77;97.17;102164.88;4995781;28;20471;-86
2023/09/14 03:51:05;;;;;;;0.90;0.90;;;;;;;10.74;97.38;102164.88;4996326;28;20038;-86
2023/09/14 03:53:30;;;;;;;0.70;0.70;;;;;;;10.72;97.49;102165.69;4995886;28;20068;-85
2023/09/14 03:55:58;;;;;;;0.77;0.77;;;;;;;10.68;97.29;102159.63;4996215;28;20418;-87
2023/09/14 03:58:24;;;;;;;0.70;0.70;;;;;;;10.70;97.41;102162.22;4995426;28;20026;-86
2023/09/14 04:00:49;;;;;;;0.93;0.93;;;;;;;10.68;97.29;102169.16;4995083;28;20042;-86
2023/09/14 04:03:17;;;;;;;0.70;0.70;;;;;;;10.62;97.15;102159.63;4995881;28;20025;-85
2023/09/14 04:05:42;;;;;;;0.50;0.50;;;;;;;10.57;97.27;102158.69;4995920;28;20074;-86
2023/09/14 04:08:07;;;;;;;0.70;0.70;;;;;;;10.59;97.47;102163.03;4995619;28;20065;-86
2023/09/14 04:10:36;;;;;;;0.50;0.50;;;;;;;10.46;97.41;102141.34;4995688;28;20462;-86
2023/09/14 04:13:24;;;;;;;0.70;0.70;;;;;;;10.60;96.99;102169.97;4995841;28;20410;-86
2023/09/14 04:15:49;;;;;;;0.90;0.75;;;;;;;10.58;97.37;102161.31;4995575;28;20038;-86
2023/09/14 04:18:14;;;;;;;0.70;0.70;;;;;;;10.58;97.31;102163.94;4995943;28;20081;-87
2023/09/14 04:20:40;;;;;;;0.83;0.83;;;;;;;10.57;97.18;102158.69;4998222;28;20033;-86
2023/09/14 04:23:05;;;;;;;0.80;0.80;;;;;;;10.52;97.32;102157.81;4996834;28;20042;-86
2023/09/14 04:25:31;;;;;;;0.67;0.67;;;;;;;10.53;97.35;102160.41;4995771;28;20026;-86
2023/09/14 04:27:56;;;;;;;0.80;0.80;;;;;;;10.48;97.56;102151.72;4995321;28;20491;-87
2023/09/14 04:30:21;;;;;;;0.50;0.50;;;;;;;10.50;97.43;102166.47;4994862;28;20019;-86
2023/09/14 04:32:47;;;;;;;0.60;0.60;;;;;;;10.46;97.75;102162.09;4995399;28;20030;-87
2023/09/14 04:35:12;;;;;;;0.83;0.60;;;;;;;10.45;97.55;102164.69;4995289;28;20105;-86
2023/09/14 04:37:37;;;;;;;0.70;0.70;;;;;;;10.40;97.56;102162.06;4994968;28;20037;-86
2023/09/14 04:40:07;;;;;;;0.60;0.60;;;;;;;10.42;97.72;102164.66;4995143;28;20027;-86
2023/09/14 04:42:32;;;;;;;1.10;0.70;;;;;;;10.39;97.64;102169.84;4995580;28;20545;-86
2023/09/14 04:44:57;;;;;;;0.93;0.70;;;;;;;10.38;97.92;102163.78;4994705;28;20105;-87
2023/09/14 04:47:23;;;;;;;0.73;0.73;;;;;;;10.38;97.77;102168.09;4994676;28;20121;-85
2023/09/14 04:49:48;;;;;;;1.33;1.00;;;;;;;10.35;97.75;102162.03;4994167;28;20066;-85
2023/09/14 04:52:13;;;;;;;0.80;0.80;;;;;;;10.38;97.69;102162.91;4995145;28;20057;-85
2023/09/14 04:54:39;;;;;;;0.70;0.70;;;;;;;10.37;97.88;102164.59;4995144;28;20049;-85
2023/09/14 04:57:04;;;;;;;0.87;0.87;;;;;;;10.35;97.83;102164.63;4993987;28;20041;-86
2023/09/14 04:59:29;;;;;;;0.77;0.77;;;;;;;10.37;97.98;102172.41;4994969;28;20022;-85
2023/09/14 05:01:55;;;;;;;0.77;0.77;;;;;;;10.33;97.55;102161.13;4994831;28;20042;-88
2023/09/14 05:04:20;;;;;;;0.90;0.90;;;;;;;10.35;97.94;102167.22;4993734;28;20023;-84
2023/09/14 05:06:45;;;;;;;0.70;0.70;;;;;;;10.29;98.09;102161.97;4994470;28;20057;-84
2023/09/14 05:09:10;;;;;;;0.60;0.60;;;;;;;10.31;98.02;102164.56;4994580;28;20027;-83
2023/09/14 05:11:36;;;;;;;0.80;0.80;;;;;;;10.30;97.92;102166.28;4994175;28;20479;-84
2023/09/14 05:14:01;;;;;;;0.70;0.70;;;;;;;10.23;98.06;102154.16;4994698;28;20081;-84
2023/09/14 05:16:27;;;;;;;0.90;0.90;;;;;;;10.30;97.94;102162.84;4994289;28;20053;-83
2023/09/14 05:18:52;;;;;;;0.90;0.90;;;;;;;10.27;97.83;102165.41;4993518;28;20037;-84
2023/09/14 05:21:17;;;;;;;0.70;0.70;;;;;;;10.30;97.71;102170.63;4994182;28;20118;-83
2023/09/14 05:23:43;;;;;;;1.10;1.00;;;;;;;10.25;98.08;102175.75;4994241;28;20022;-84
2023/09/14 05:26:09;;;;;;;0.80;0.80;;;;;;;10.22;97.96;102167.09;4992997;28;20026;-84
2023/09/14 05:28:34;;;;;;;0.88;0.88;;;;;;;10.21;98.15;102166.22;4994777;28;20046;-82
2023/09/14 05:30:59;;;;;;;0.83;0.73;;;;;;;10.25;98.16;102182.69;4994398;28;20450;-82
2023/09/14 05:33:25;;;;;;;0.60;0.60;;;;;;;10.24;98.22;102183.53;4993411;28;20025;-81
2023/09/14 05:35:50;;;;;;;1.33;1.00;;;;;;;10.30;98.13;102192.25;4993822;28;20069;-82
2023/09/14 05:38:16;;;;;;;1.17;0.80;;;;;;;10.33;97.92;102189.69;4993114;28;20076;-81
2023/09/14 05:40:41;;;;;;;0.90;0.90;;;;;;;10.33;98.20;102192.28;4993420;28;20014;-82
2023/09/14 05:43:07;;;;;;;0.90;0.90;;;;;;;10.30;98.29;102192.25;4993783;28;20098;-81
2023/09/14 05:45:32;;;;;;;0.57;0.57;;;;;;;10.36;98.36;102201.81;4993879;28;20054;-81
2023/09/14 05:47:57;;;;;;;0.80;0.80;;;;;;;10.37;98.44;102187.97;4993273;28;20072;-81
2023/09/14 05:50:23;;;;;;;0.97;0.90;;;;;;;10.40;98.37;102197.53;4993852;28;20030;-81
2023/09/14 05:52:48;;;;;;;1.00;0.73;;;;;;;10.35;98.38;102193.16;4993356;28;20034;-82
2023/09/14 05:55:14;;;;;;;0.80;0.70;;;;;;;10.39;98.44;102195.78;4992385;28;20041;-81
2023/09/14 05:57:42;;;;;;;1.00;1.00;;;;;;;10.42;98.41;102195.81;4993653;28;20363;-76
2023/09/14 06:00:13;;;;;;;0.90;0.90;;;;;;;10.40;98.25;102192.34;4994229;28;20030;-94
2023/09/14 06:02:41;;;;;;;1.10;1.00;;;;;;;10.50;98.29;102205.41;4995052;28;20125;-91
2023/09/14 06:05:10;;;;;;;1.00;0.90;;;;;;;10.51;98.58;102195.88;4994818;28;20364;-92
2023/09/14 06:07:35;;;;;;;0.90;0.90;;;;;;;10.57;98.31;102203.72;4995140;28;20030;-92
2023/09/14 06:10:01;;;;;;;0.80;0.70;;;;;;;10.48;98.30;102178.56;4994531;28;20502;-93
2023/09/14 06:12:29;;;;;;;1.00;0.93;;;;;;;10.59;98.65;102198.53;4994608;28;20536;-94
2023/09/14 06:14:54;;;;;;;0.90;0.90;;;;;;;10.65;98.63;102202.03;4994856;28;20038;-93
2023/09/14 06:17:20;;;;;;;0.80;0.80;;;;;;;10.66;98.38;102193.38;4995045;28;20023;-92
2023/09/14 06:19:46;;;;;;;0.73;0.73;;;;;;;10.75;98.78;102202.94;4995026;28;20064;-92
2023/09/14 06:22:11;;;;;;;1.67;0.73;;;;;;;10.76;99.03;102196.88;4994672;28;20109;-96
2023/09/14 06:24:36;;;;;;;1.07;0.97;;;;;;;10.72;98.71;102187.38;4995223;28;20022;-96
2023/09/14 06:27:05;;;;;;;0.70;0.70;;;;;;;10.84;99.25;102196.09;4996139;28;20056;-93
2023/09/14 06:29:30;;;;;;;0.55;0.55;;;;;;;10.90;99.89;102199.59;4996141;28;20085;-96
2023/09/14 06:31:56;;;;;;;0.50;0.50;;;;;;;10.97;99.72;102197.88;5000059;28;20038;-96
2023/09/14 06:34:21;;;;;;;0.53;0.53;;;;;;;10.99;100.00;102190.09;4994698;28;20038;-92
2023/09/14 06:36:46;;;;;;;0.83;0.70;;;;;;;11.13;100.00;102198.81;4993393;28;20456;-84
2023/09/14 06:39:12;;;;;;;0.70;0.70;;;;;;;11.23;100.00;102204.91;4992987;28;20483;-82
2023/09/14 06:41:38;;;;;;;0.87;0.83;;;;;;;11.27;100.00;102209.25;4993369;28;20019;-84
2023/09/14 06:44:03;;;;;;;1.33;1.23;;;;;;;11.44;100.00;102209.31;4992400;28;20033;-84
2023/09/14 06:46:29;;;;;;;1.20;1.10;;;;;;;11.62;100.00;102212.81;4992872;28;20119;-82
2023/09/14 06:48:54;;;;;;;1.23;1.13;;;;;;;12.41;100.00;102199.91;4993561;28;20034;-82
2023/09/14 06:51:19;;;;;;;1.30;1.20;;;;;;;14.55;100.00;102202.19;4995637;28;20030;-82
2023/09/14 06:53:45;;;;;;;2.93;1.57;;;;;;;16.57;93.48;102209.84;4997245;28;20026;-82
2023/09/14 06:56:11;;;;;;;2.40;1.70;;;;;;;18.43;86.62;102203.97;4997067;28;20027;-82
2023/09/14 06:58:37;;;;;;;1.67;1.57;;;;;;;20.07;88.47;102211.44;4996581;28;20053;-82
2023/09/14 07:01:04;;;;;;;1.75;1.58;;;;;;;21.16;73.55;102218.16;4997067;28;20088;-82
2023/09/14 07:03:34;;;;;;;2.10;1.70;;;;;;;22.34;75.36;102230.19;4996350;28;20073;-82
2023/09/14 07:06:00;;;;;;;3.17;2.08;;;;;;;22.98;68.24;102226.44;4996811;28;20022;-82
2023/09/14 07:08:25;;;;;;;2.47;1.77;;;;;;;23.03;64.98;102230.69;4996812;28;20045;-83
2023/09/14 07:10:51;;;;;;;1.93;1.53;;;;;;;22.16;69.03;102219.44;4996354;28;20101;-82
2023/09/14 07:13:17;;;;;;;1.63;1.50;;;;;;;21.11;72.45;102229.75;4996741;28;20034;-82
2023/09/14 07:15:45;;;;;;;1.73;1.63;;;;;;;19.97;73.50;102216.16;4997231;28;20054;-82
2023/09/14 07:18:23;;;;;;;1.95;1.67;;;;;;;18.98;76.66;102214.75;4995870;28;20438;-82
2023/09/14 07:20:49;;;;;;;2.70;1.90;;;;;;;18.08;79.40;102215.41;4996964;28;20467;-81
2023/09/14 07:23:15;;;;;;;2.83;1.90;;;;;;;17.46;80.20;102217.69;4995935;28;20085;-82
2023/09/14 07:25:40;;;;;;;3.72;2.50;;;;;;;16.98;83.04;102213.47;4995888;28;20081;-81
2023/09/14 07:28:05;;;;;;;3.80;2.43;;;;;;;16.62;84.25;102218.50;4996166;28;20026;-82
2023/09/14 07:30:34;;;;;;;4.07;2.50;;;;;;;16.20;84.85;102212.25;4996512;28;20051;-81
2023/09/14 07:32:59;;;;;;;3.53;2.42;;;;;;;15.99;86.62;102213.47;4995407;28;20058;-82
2023/09/14 07:35:24;;;;;;;2.20;1.83;;;;;;;15.88;86.90;102220.63;4996438;28;20062;-81
2023/09/14 07:37:50;;;;;;;2.80;2.40;;;;;;;15.76;88.64;102221.66;4996308;28;20023;-81
2023/09/14 07:40:15;;;;;;;3.67;2.50;;;;;;;15.68;88.80;102215.66;4995191;28;20019;-82
2023/09/14 07:42:40;;;;;;;4.03;2.40;;;;;;;15.59;89.29;102224.53;4996699;28;20022;-82
2023/09/14 07:45:06;;;;;;;4.70;2.97;;;;;;;15.53;90.39;102228.09;4995990;28;20530;-82
2023/09/14 07:47:31;;;;;;;3.63;2.30;;;;;;;15.48;90.00;102221.19;4995560;28;20046;-82
2023/09/14 07:49:57;;;;;;;3.70;2.40;;;;;;;15.52;90.52;102223.72;4996229;28;20043;-82
2023/09/14 07:52:23;;;;;;;3.87;2.60;;;;;;;15.47;91.22;102224.69;4995887;28;20027;-82
2023/09/14 07:54:51;;;;;;;3.00;2.33;;;;;;;15.44;91.45;102216.00;4995711;28;20026;-82
2023/09/14 07:57:17;;;;;;;4.72;2.30;;;;;;;15.52;91.26;102238.56;4995974;28;20371;-82
2023/09/14 07:59:42;;;;;;;2.45;2.05;;;;;;;15.55;92.76;102235.91;4995420;28;20033;-82
2023/09/14 08:02:08;;;;;;;2.70;2.23;;;;;;;15.62;92.46;102234.06;4994472;28;20042;-82
2023/09/14 08:04:33;;;;;;;2.27;2.07;;;;;;;15.69;92.37;102230.47;4996049;28;20144;-82
2023/09/14 08:06:59;;;;;;;2.73;1.97;;;;;;;15.78;93.37;102239.94;4995005;28;20072;-82
2023/09/14 08:09:24;;;;;;;1.93;1.77;;;;;;;15.84;92.67;102243.38;4995544;28;20062;-82
2023/09/14 08:11:50;;;;;;;4.07;2.50;;;;;;;15.87;93.99;102230.25;4996063;28;20030;-82
2023/09/14 08:14:15;;;;;;;3.00;2.13;;;;;;;15.92;92.76;102230.16;4994754;28;20030;-82
2023/09/14 08:16:40;;;;;;;2.83;2.20;;;;;;;15.96;93.19;102237.06;4995827;28;20030;-82
2023/09/14 08:19:06;;;;;;;5.30;2.90;;;;;;;15.93;92.52;102225.78;4995290;28;20038;-82
2023/09/14 08:21:31;;;;;;;5.20;2.63;;;;;;;15.96;92.10;102228.34;4994781;28;20022;-82
2023/09/14 08:23:56;;;;;;;3.80;2.60;;;;;;;16.02;92.64;102229.13;4995750;28;20352;-82
2023/09/14 08:26:25;;;;;;;4.93;2.63;;;;;;;16.05;92.42;102230.81;4995269;28;20034;-82
2023/09/14 08:28:51;;;;;;;3.00;2.15;;;;;;;16.14;92.28;102233.28;4995000;28;20034;-82
2023/09/14 08:31:16;;;;;;;2.97;2.20;;;;;;;16.21;92.32;102231.44;4995087;28;20076;-82
2023/09/14 08:33:42;;;;;;;6.93;2.80;;;;;;;16.27;92.86;102233.09;4995341;28;20030;-82
2023/09/14 08:36:07;;;;;;;7.57;3.07;;;;;;;16.34;91.81;102232.97;4994682;28;20034;-82
2023/09/14 08:38:32;;;;;;;8.90;4.23;;;;;;;16.40;91.98;102236.34;4995511;28;20109;-82
2023/09/14 08:41:03;;;;;;;7.43;3.70;;;;;;;16.49;91.94;102244.91;4995294;28;20061;-82
2023/09/14 08:43:29;;;;;;;8.45;4.15;;;;;;;16.62;91.52;102244.69;4994515;28;20053;-82
2023/09/14 08:45:56;;;;;;;7.33;3.93;;;;;;;16.68;91.16;102234.97;4995331;28;20038;-82
2023/09/14 08:48:23;;;;;;;;;;;;;;;16.81;91.11;102246.06;4994971;28;20085;-82
2023/09/14 08:50:48;;;;;;;4.93;3.00;;;;;;;16.87;91.01;102242.47;4994105;28;19937;-82
2023/09/14 08:53:14;;;;;;;4.73;2.50;;;;;;;16.94;91.09;102243.25;4994744;28;20463;-82
2023/09/14 08:55:40;;;;;;;5.23;3.00;;;;;;;17.02;90.73;102236.09;4995293;28;20035;-82
2023/09/14 08:58:07;;;;;;;5.20;2.83;;;;;;;17.07;90.36;102244.75;4993793;28;20031;-82
2023/09/14 09:00:33;;;;;;;4.05;2.70;;;;;;;17.16;90.36;102243.69;4994573;28;20092;-82
2023/09/14 09:02:59;;;;;;;4.03;2.55;;;;;;;17.19;90.14;102238.38;4994273;28;20599;-82
2023/09/14 09:05:27;;;;;;;3.20;2.53;;;;;;;17.21;90.62;102225.25;4994745;28;20022;-82
2023/09/14 09:07:54;;;;;;;3.97;2.25;;;;;;;17.31;90.28;102234.63;4994551;28;20297;-82
2023/09/14 09:10:25;;;;;;;3.90;2.58;;;;;;;17.39;89.17;102235.31;4993586;28;20401;-81
2023/09/14 09:12:59;;;;;;;12.15;5.30;;;;;;;17.33;86.86;102235.47;4994246;28;20026;-82
2023/09/14 09:15:29;;;;;;;9.85;4.78;;;;;;;17.33;89.37;102234.59;4994116;28;20034;-82
2023/09/14 09:18:07;;;;;;;8.70;3.88;;;;;;;17.32;87.80;102236.38;4993846;28;20545;-81
2023/09/14 09:20:32;;;;;;;;;;;;;;;17.38;88.76;102233.59;4995045;28;20034;-81
2023/09/14 09:23:01;;;;;;;6.10;3.20;;;;;;;17.54;89.02;102228.03;4994380;28;19924;-82
2023/09/14 09:25:29;;;;;;;6.55;3.30;;;;;;;17.71;86.97;102228.47;4993458;28;20038;-81
2023/09/14 09:28:02;;;;;;;8.70;4.00;;;;;;;17.86;82.56;102227.25;4994104;28;20479;-81
2023/09/14 09:30:32;;;;;;;10.18;4.80;;;;;;;17.98;86.44;102220.88;4994388;28;20034;-81
2023/09/14 09:32:57;;;;;;;6.03;3.60;;;;;;;18.25;87.14;102228.13;4994066;28;20106;-81
2023/09/14 09:35:25;;;;;;;7.07;3.60;;;;;;;18.42;82.71;102225.06;4994364;28;20439;-81
2023/09/14 09:37:51;;;;;;;5.55;3.10;;;;;;;18.56;85.16;102217.66;4993978;28;20049;-81
2023/09/14 09:40:17;;;;;;;;;;;;;;;18.73;84.63;102224.22;4993559;28;20030;-81
2023/09/14 09:42:42;;;;;;;5.90;3.17;;;;;;;18.87;83.58;102226.44;4994124;28;20358;-81
2023/09/14 09:45:08;;;;;;;8.90;4.33;;;;;;;19.00;82.11;102230.50;4993776;28;20029;-81
2023/09/14 09:47:35;;;;;;;10.88;5.05;;;;;;;19.06;79.95;102222.44;4993230;28;20266;-81
2023/09/14 09:50:01;;;;;;;;;;;;;;;19.14;82.05;102225.69;4994451;28;20062;-81
2023/09/14 09:52:32;;;;;;;9.35;4.22;;;;;;;19.23;75.88;102219.31;4992964;28;19917;-81
2023/09/14 09:54:58;;;;;;;8.65;4.00;;;;;;;19.38;79.70;102212.72;4993793;28;20030;-81
2023/09/14 09:57:28;;;;;;;7.37;4.00;;;;;;;19.56;79.55;102216.56;4993000;28;20057;-81
2023/09/14 09:59:55;;;;;;;7.32;3.28;;;;;;;19.65;78.07;102210.09;4992783;28;20326;-82
2023/09/14 10:02:29;;;;;;;11.13;4.60;;;;;;;19.72;74.23;102216.91;4992984;28;20053;-83
2023/09/14 10:04:54;;;;;;;8.73;4.05;;;;;;;19.67;74.79;102220.63;4993723;28;20569;-83
2023/09/14 10:07:23;;;;;;;6.23;3.43;;;;;;;19.47;75.59;102210.69;4992614;28;20133;-83
2023/09/14 10:09:51;;;;;;;5.28;3.00;;;;;;;19.34;78.71;102216.34;4993548;28;20057;-83
2023/09/14 10:12:18;;;;;;;4.60;2.70;;;;;;;19.39;78.67;102209.19;4993650;28;20372;-83
2023/09/14 10:14:49;;;;;;;3.72;2.38;;;;;;;19.44;78.64;102211.66;4992820;28;20023;-83
2023/09/14 10:17:21;;;;;;;3.33;2.50;;;;;;;19.53;76.71;102206.09;4993547;28;20109;-83
2023/09/14 10:19:47;;;;;;;3.10;2.20;;;;;;;19.70;75.81;102217.91;4993616;28;20030;-82
2023/09/14 10:22:14;;;;;;;6.30;3.25;;;;;;;19.67;74.39;102205.66;4992322;28;20145;-83
2023/09/14 10:24:39;;;;;;;4.07;2.70;;;;;;;19.64;76.12;102212.81;4993512;28;20018;-83
2023/09/14 10:27:06;;;;;;;6.43;2.90;;;;;;;19.53;75.31;102207.88;4992858;28;20081;-83
2023/09/14 10:29:32;;;;;;;4.65;2.78;;;;;;;19.60;75.83;102206.78;4992621;28;20037;-83
2023/09/14 10:31:59;;;;;;;4.20;2.40;;;;;;;19.82;75.98;102206.94;4992353;28;20023;-83
2023/09/14 10:34:28;;;;;;;3.10;2.20;;;;;;;20.09;71.01;102214.03;4992554;28;20030;-82
2023/09/14 10:36:55;;;;;;;7.53;3.50;;;;;;;20.09;67.10;102203.50;4993081;28;20475;-83
2023/09/14 10:39:23;;;;;;;5.38;2.83;;;;;;;20.06;71.46;102199.16;4992925;28;20541;-83
2023/09/14 10:41:49;;;;;;;8.65;4.47;;;;;;;19.82;65.17;102204.28;4992221;28;20027;-83
2023/09/14 10:44:14;;;;;;;6.43;3.40;;;;;;;19.63;71.15;102200.53;4992903;28;20034;-83
2023/09/14 10:46:41;;;;;;;4.27;2.70;;;;;;;19.50;73.54;102190.41;4992795;28;20041;-84
2023/09/14 10:49:07;;;;;;;4.90;2.72;;;;;;;19.50;72.30;102192.19;4992027;28;20277;-84
2023/09/14 10:51:32;;;;;;;5.47;3.35;;;;;;;19.58;65.44;102192.78;4993094;28;20030;-85
2023/09/14 10:54:00;;;;;;;6.93;3.50;;;;;;;19.63;69.19;102188.25;4993406;28;20031;-82
2023/09/14 10:56:33;;;;;;;4.07;2.80;;;;;;;19.67;72.87;102192.50;4991686;28;20382;-86
2023/09/14 10:59:08;;;;;;;3.78;2.42;;;;;;;19.66;68.25;102179.38;4992816;28;20026;-88
2023/09/14 11:01:45;;;;;;;4.00;2.60;;;;;;;19.68;73.58;102178.41;4992969;28;20081;-84
2023/09/14 11:04:15;;;;;;;3.28;2.25;;;;;;;19.86;73.03;102177.00;4991876;28;20026;-83
2023/09/14 11:06:49;;;;;;;6.50;3.47;;;;;;;20.08;68.42;102178.91;4992694;28;20502;-82
2023/09/14 11:09:19;;;;;;;11.32;4.97;;;;;;;20.19;65.60;102182.03;4992820;28;20033;-83
2023/09/14 11:11:46;;;;;;;8.15;4.05;;;;;;;20.32;62.78;102181.59;4991925;28;20038;-83
2023/09/14 11:14:15;;;;;;;8.43;4.10;;;;;;;20.42;67.26;102174.22;4992662;28;20029;-83
2023/09/14 11:16:49;;;;;;;4.40;2.70;;;;;;;20.43;69.94;102176.81;4991763;28;20404;-83
2023/09/14 11:19:30;;;;;;;3.47;2.50;;;;;;;20.41;70.71;102176.00;4992707;28;20030;-77
2023/09/14 11:22:12;;;;;;;2.72;2.33;;;;;;;20.34;71.38;102174.50;4993204;28;20038;-81
2023/09/14 11:24:37;;;;;;;2.55;2.20;;;;;;;20.31;71.67;102182.50;4991440;28;20521;-81